Time;durP1;ratioP1;P1;durP2;ratioP2;P2;SDS_P1;SDS_P2;PMS_P1;PMS_P2;Temp;Humidity;BMP_temperature;BMP_pressure;BME280_temperature;BME280_humidity;BME280_pressure;Samples;Min_cycle;Max_cycle;Signal;HPM_P1;HPM_P2
2023/12/16 00:00:45;;;;;;;10.50;4.05;;;7.30;99.90;;;;;;4975961;28;20045;-73
2023/12/16 00:03:11;;;;;;;12.30;5.20;;;7.30;99.90;;;;;;4961759;28;20422;-72
2023/12/16 00:05:37;;;;;;;14.63;4.28;;;7.30;99.90;;;;;;4962989;28;20034;-72
2023/12/16 00:08:03;;;;;;;13.10;3.88;;;7.30;99.90;;;;;;4964976;28;20094;-73
2023/12/16 00:10:32;;;;;;;11.48;3.80;;;7.30;99.90;;;;;;4970419;28;20121;-72
2023/12/16 00:12:57;;;;;;;14.10;4.05;;;7.30;99.90;;;;;;4974832;28;20054;-73
2023/12/16 00:15:23;;;;;;;15.15;4.30;;;7.30;99.90;;;;;;4992933;28;20053;-72
2023/12/16 00:17:49;;;;;;;10.63;3.70;;;7.30;99.90;;;;;;4965272;28;20042;-72
2023/12/16 00:20:14;;;;;;;12.23;3.85;;;7.30;99.90;;;;;;5006098;28;20043;-72
2023/12/16 00:22:40;;;;;;;13.05;3.85;;;7.30;99.90;;;;;;4962468;28;20612;-72
2023/12/16 00:25:07;;;;;;;9.38;3.30;;;7.30;99.90;;;;;;4982517;28;20090;-72
2023/12/16 00:27:33;;;;;;;9.35;3.20;;;7.30;99.90;;;;;;4965358;28;20038;-72
2023/12/16 00:29:59;;;;;;;10.93;3.22;;;7.30;99.90;;;;;;5008044;28;20046;-72
2023/12/16 00:32:28;;;;;;;11.20;3.90;;;7.30;99.90;;;;;;5011070;28;20383;-72
2023/12/16 00:34:54;;;;;;;10.05;3.15;;;7.30;99.90;;;;;;4979990;28;20054;-72
2023/12/16 00:37:20;;;;;;;10.18;3.50;;;7.30;99.90;;;;;;4980963;28;20080;-72
2023/12/16 00:39:46;;;;;;;12.38;3.30;;;7.30;99.90;;;;;;4964973;28;20049;-72
2023/12/16 00:42:11;;;;;;;13.65;3.78;;;7.20;99.90;;;;;;5011013;28;20042;-72
2023/12/16 00:44:37;;;;;;;9.60;3.13;;;7.20;99.90;;;;;;4964151;28;20046;-73
2023/12/16 00:47:03;;;;;;;11.00;3.17;;;7.20;99.90;;;;;;4979538;28;20050;-72
2023/12/16 00:49:29;;;;;;;12.70;3.38;;;7.20;99.90;;;;;;4966370;28;20077;-72
2023/12/16 00:51:58;;;;;;;10.18;3.58;;;7.20;99.90;;;;;;4979645;28;20395;-72
2023/12/16 00:54:24;;;;;;;14.20;3.40;;;7.20;99.90;;;;;;4980695;28;20495;-72
2023/12/16 00:56:50;;;;;;;12.15;3.72;;;7.20;99.90;;;;;;4978499;28;20058;-72
2023/12/16 00:59:21;;;;;;;9.98;3.15;;;7.20;99.90;;;;;;4978622;28;20039;-72
2023/12/16 01:01:46;;;;;;;11.52;3.47;;;7.10;99.90;;;;;;5011876;28;20042;-72
2023/12/16 01:04:12;;;;;;;11.98;3.30;;;7.10;99.90;;;;;;4963975;28;20053;-71
2023/12/16 01:06:38;;;;;;;12.77;3.50;;;7.10;99.90;;;;;;4955419;28;20035;-72
2023/12/16 01:09:04;;;;;;;12.77;3.20;;;7.00;99.90;;;;;;4971316;28;20137;-71
2023/12/16 01:11:30;;;;;;;10.43;3.15;;;7.00;99.90;;;;;;4979149;28;20046;-71
2023/12/16 01:13:55;;;;;;;8.60;2.47;;;7.00;99.90;;;;;;5008618;28;20615;-71
2023/12/16 01:16:21;;;;;;;10.43;2.92;;;7.00;99.90;;;;;;4976481;28;20069;-71
2023/12/16 01:18:47;;;;;;;13.88;3.95;;;6.90;99.90;;;;;;4976996;28;20502;-71
2023/12/16 01:21:13;;;;;;;11.93;3.58;;;6.90;99.90;;;;;;4982246;28;20516;-71
2023/12/16 01:23:38;;;;;;;13.07;4.10;;;6.90;99.90;;;;;;5008572;28;20675;-71
2023/12/16 01:26:07;;;;;;;12.80;4.13;;;6.80;99.90;;;;;;4994787;28;20072;-71
2023/12/16 01:28:33;;;;;;;13.70;4.53;;;6.80;99.90;;;;;;4976599;28;20135;-71
2023/12/16 01:30:59;;;;;;;11.23;4.07;;;6.80;99.90;;;;;;4981845;28;20050;-71
2023/12/16 01:33:25;;;;;;;10.30;3.92;;;6.80;99.90;;;;;;4977405;28;20425;-71
2023/12/16 01:35:51;;;;;;;10.80;4.43;;;6.70;99.90;;;;;;4980464;28;20379;-71
2023/12/16 01:38:17;;;;;;;10.98;4.70;;;6.70;99.90;;;;;;4980628;28;20061;-71
2023/12/16 01:40:42;;;;;;;14.05;4.90;;;6.70;99.90;;;;;;4998214;28;20398;-71
2023/12/16 01:43:08;;;;;;;14.80;4.55;;;6.70;99.90;;;;;;4977587;28;20579;-71
2023/12/16 01:45:34;;;;;;;13.63;4.95;;;6.60;99.90;;;;;;4977477;28;20073;-72
2023/12/16 01:48:02;;;;;;;13.60;5.05;;;6.60;99.90;;;;;;4979817;28;20078;-72
2023/12/16 01:50:29;;;;;;;16.50;4.20;;;6.60;99.90;;;;;;4964160;28;20043;-72
2023/12/16 01:52:57;;;;;;;12.93;4.55;;;6.60;99.90;;;;;;4984914;28;20130;-72
2023/12/16 01:55:23;;;;;;;14.45;4.60;;;6.50;99.90;;;;;;4980656;28;20469;-72
2023/12/16 01:57:48;;;;;;;13.63;4.53;;;6.50;99.90;;;;;;4968103;28;20047;-72
2023/12/16 02:00:15;;;;;;;15.00;4.88;;;6.50;99.90;;;;;;4983336;28;20053;-72
2023/12/16 02:02:42;;;;;;;13.68;3.88;;;6.50;99.90;;;;;;4974284;28;20125;-72
2023/12/16 02:05:09;;;;;;;13.45;4.18;;;6.50;99.90;;;;;;4980360;28;20109;-72
2023/12/16 02:07:34;;;;;;;12.90;4.32;;;6.40;99.90;;;;;;5014427;28;20490;-72
2023/12/16 02:10:01;;;;;;;14.25;4.03;;;6.40;99.90;;;;;;4982174;28;20060;-72
2023/12/16 02:12:27;;;;;;;10.80;4.20;;;6.40;99.90;;;;;;4980670;28;20049;-72
2023/12/16 02:14:53;;;;;;;15.40;4.60;;;6.40;99.90;;;;;;4982932;28;20070;-72
2023/12/16 02:17:19;;;;;;;14.43;4.05;;;6.40;99.90;;;;;;4965460;28;20097;-72
2023/12/16 02:19:47;;;;;;;12.52;4.65;;;6.30;99.90;;;;;;4981339;28;20046;-72
2023/12/16 02:22:13;;;;;;;12.10;3.60;;;6.30;99.90;;;;;;4982608;28;20089;-72
2023/12/16 02:24:41;;;;;;;13.27;4.20;;;6.30;99.90;;;;;;4981670;28;20088;-72
2023/12/16 02:27:08;;;;;;;10.90;3.70;;;6.30;99.90;;;;;;4966049;28;20085;-72
2023/12/16 02:29:33;;;;;;;13.85;4.07;;;6.30;99.90;;;;;;4981621;28;20051;-72
2023/12/16 02:31:59;;;;;;;12.00;3.70;;;6.30;99.90;;;;;;4969482;28;20111;-72
2023/12/16 02:34:26;;;;;;;14.80;4.05;;;6.30;99.90;;;;;;4977702;28;20066;-72
2023/12/16 02:36:52;;;;;;;13.75;3.88;;;6.30;99.90;;;;;;4980695;28;20054;-72
2023/12/16 02:39:18;;;;;;;14.95;4.20;;;6.30;99.90;;;;;;4983608;28;20667;-72
2023/12/16 02:41:44;;;;;;;11.15;3.90;;;6.40;99.90;;;;;;4979473;28;20043;-72
2023/12/16 02:44:10;;;;;;;14.60;3.90;;;6.30;99.90;;;;;;5013601;28;20188;-72
2023/12/16 02:46:36;;;;;;;15.10;4.07;;;6.30;99.90;;;;;;4982337;28;20394;-72
2023/12/16 02:49:01;;;;;;;15.30;3.78;;;6.30;99.90;;;;;;5015655;28;20055;-72
2023/12/16 02:51:29;;;;;;;11.93;3.53;;;6.30;99.90;;;;;;5013110;28;20059;-72
2023/12/16 02:53:57;;;;;;;12.13;3.95;;;6.30;99.90;;;;;;5073963;28;20117;-72
2023/12/16 02:56:23;;;;;;;9.73;3.30;;;6.40;99.90;;;;;;5030522;28;20511;-72
2023/12/16 02:58:49;;;;;;;18.30;4.90;;;6.30;99.90;;;;;;5031299;28;20032;-72
2023/12/16 03:01:16;;;;;;;16.50;4.20;;;6.30;99.90;;;;;;5042439;28;20810;-72
2023/12/16 03:03:41;;;;;;;12.88;3.08;;;6.30;99.90;;;;;;5051619;28;20048;-72
2023/12/16 03:06:08;;;;;;;11.35;3.03;;;6.40;99.90;;;;;;5047701;28;20123;-72
2023/12/16 03:08:37;;;;;;;12.02;3.30;;;6.30;99.90;;;;;;5033909;28;20046;-72
2023/12/16 03:11:03;;;;;;;13.63;3.80;;;6.30;99.90;;;;;;5020708;28;20184;-72
2023/12/16 03:13:29;;;;;;;12.50;3.92;;;6.30;99.90;;;;;;5039622;28;20149;-72
2023/12/16 03:15:56;;;;;;;19.73;3.92;;;6.30;99.90;;;;;;5032146;28;20097;-72
2023/12/16 03:18:21;;;;;;;15.23;4.15;;;6.20;99.90;;;;;;5031029;28;20097;-72
2023/12/16 03:20:50;;;;;;;14.23;4.22;;;6.20;99.90;;;;;;5049678;28;20044;-78
2023/12/16 03:23:16;;;;;;;17.67;4.30;;;6.20;99.90;;;;;;5027334;28;20101;-78
2023/12/16 03:25:45;;;;;;;14.95;4.25;;;6.20;99.90;;;;;;4970613;28;20043;-79
2023/12/16 03:28:11;;;;;;;13.57;3.58;;;6.10;99.90;;;;;;4977391;28;20457;-71
2023/12/16 03:30:40;;;;;;;16.30;3.97;;;6.10;99.90;;;;;;4997572;28;20030;-72
2023/12/16 03:33:07;;;;;;;13.98;4.00;;;6.10;99.90;;;;;;5033904;28;20105;-71
2023/12/16 03:35:33;;;;;;;14.30;3.97;;;6.10;99.90;;;;;;5051657;28;20038;-71
2023/12/16 03:38:00;;;;;;;12.68;3.88;;;6.20;99.90;;;;;;5059219;28;20126;-71
2023/12/16 03:40:26;;;;;;;12.30;4.28;;;6.10;99.90;;;;;;5057941;28;20101;-71
2023/12/16 03:42:52;;;;;;;13.52;3.92;;;6.10;99.90;;;;;;5054598;28;20055;-71
2023/12/16 03:45:18;;;;;;;13.13;3.97;;;6.00;99.90;;;;;;5044596;28;20092;-72
2023/12/16 03:47:44;;;;;;;14.80;4.35;;;6.00;99.90;;;;;;5047425;28;20047;-72
2023/12/16 03:50:12;;;;;;;14.43;3.95;;;6.00;99.90;;;;;;5030567;28;20038;-72
2023/12/16 03:52:38;;;;;;;12.02;3.88;;;6.00;99.90;;;;;;5029368;28;20032;-72
2023/12/16 03:55:07;;;;;;;16.83;4.00;;;6.00;99.90;;;;;;5054478;28;20051;-72
2023/12/16 03:57:33;;;;;;;14.07;4.35;;;6.00;99.90;;;;;;5063685;28;20671;-72
2023/12/16 03:59:59;;;;;;;14.02;3.70;;;5.90;99.90;;;;;;4980247;28;20142;-72
2023/12/16 04:02:25;;;;;;;13.02;4.45;;;5.90;99.90;;;;;;5014306;28;20057;-72
2023/12/16 04:04:51;;;;;;;15.98;4.80;;;5.90;99.90;;;;;;5016453;28;20494;-72
2023/12/16 04:07:17;;;;;;;13.93;3.92;;;5.90;99.90;;;;;;5063608;27;20078;-71
2023/12/16 04:09:43;;;;;;;13.75;4.40;;;6.00;99.90;;;;;;5041370;28;20034;-71
2023/12/16 04:12:09;;;;;;;14.13;4.65;;;5.90;99.90;;;;;;5040684;28;20050;-71
2023/12/16 04:14:41;;;;;;;15.88;4.72;;;5.90;99.90;;;;;;5021807;28;20042;-72
2023/12/16 04:17:07;;;;;;;17.63;4.72;;;5.90;99.90;;;;;;5034459;28;20546;-72
2023/12/16 04:19:33;;;;;;;14.95;4.80;;;5.80;99.90;;;;;;5035186;28;20054;-72
2023/12/16 04:21:59;;;;;;;15.70;4.18;;;5.90;99.90;;;;;;5042921;28;20139;-72
2023/12/16 04:24:25;;;;;;;14.18;4.45;;;5.80;99.90;;;;;;5044565;28;20047;-72
2023/12/16 04:26:55;;;;;;;14.90;4.95;;;5.90;99.90;;;;;;5078325;27;20118;-71
2023/12/16 04:29:21;;;;;;;16.25;4.78;;;5.90;99.90;;;;;;5053065;28;20040;-72
2023/12/16 04:31:47;;;;;;;15.75;4.43;;;5.90;99.90;;;;;;5032804;28;20040;-71
2023/12/16 04:34:12;;;;;;;13.77;4.65;;;5.90;99.90;;;;;;5045428;28;20108;-72
2023/12/16 04:36:38;;;;;;;14.77;4.10;;;5.90;99.90;;;;;;5043986;28;20040;-72
2023/12/16 04:39:07;;;;;;;18.23;4.80;;;5.80;99.90;;;;;;5019040;28;20039;-71
2023/12/16 04:41:33;;;;;;;18.05;4.95;;;5.80;99.90;;;;;;5038665;28;20048;-71
2023/12/16 04:43:59;;;;;;;14.13;4.07;;;5.80;99.90;;;;;;5025455;28;20040;-72
2023/12/16 04:46:31;;;;;;;12.90;4.57;;;5.80;99.90;;;;;;5033536;28;20536;-71
2023/12/16 04:48:57;;;;;;;14.93;4.55;;;5.80;99.90;;;;;;5072390;28;20399;-72
2023/12/16 04:51:22;;;;;;;16.70;4.47;;;5.80;99.90;;;;;;5032606;28;20043;-71
2023/12/16 04:53:48;;;;;;;15.25;5.22;;;5.80;99.90;;;;;;5079530;27;20096;-72
2023/12/16 04:56:14;;;;;;;17.80;4.68;;;5.80;99.90;;;;;;5037893;28;20054;-72
2023/12/16 04:58:40;;;;;;;14.77;4.28;;;5.80;99.90;;;;;;5039582;28;20170;-72
2023/12/16 05:01:05;;;;;;;15.35;4.45;;;5.70;99.90;;;;;;5013080;28;20526;-72
2023/12/16 05:03:32;;;;;;;15.80;5.03;;;5.80;99.90;;;;;;5060773;27;21107;-72
2023/12/16 05:05:58;;;;;;;16.02;4.80;;;5.70;99.90;;;;;;5044682;28;20354;-72
2023/12/16 05:08:23;;;;;;;13.77;4.65;;;5.70;99.90;;;;;;5040478;28;20127;-73
2023/12/16 05:10:49;;;;;;;17.02;4.90;;;5.80;99.90;;;;;;5003358;28;20055;-72
2023/12/16 05:13:15;;;;;;;16.27;4.72;;;5.80;99.90;;;;;;4989256;28;20046;-72
2023/12/16 05:15:41;;;;;;;16.23;4.80;;;5.80;99.90;;;;;;5020258;28;20047;-72
2023/12/16 05:18:08;;;;;;;16.30;4.90;;;5.80;99.90;;;;;;5045495;28;20044;-72
2023/12/16 05:20:34;;;;;;;21.17;5.97;;;5.80;99.90;;;;;;5029423;28;20460;-72
2023/12/16 05:23:01;;;;;;;21.70;6.18;;;5.80;99.90;;;;;;5017858;28;20038;-72
2023/12/16 05:25:30;;;;;;;15.05;5.20;;;5.80;99.90;;;;;;4983053;28;20081;-72
2023/12/16 05:27:57;;;;;;;19.05;5.32;;;5.80;99.90;;;;;;5010375;28;20036;-72
2023/12/16 05:30:23;;;;;;;17.38;5.13;;;5.90;99.90;;;;;;5035070;28;20055;-72
2023/12/16 05:32:52;;;;;;;21.90;5.60;;;5.90;99.90;;;;;;5022208;28;20035;-72
2023/12/16 05:35:19;;;;;;;15.05;5.55;;;5.90;99.90;;;;;;4976439;28;20061;-72
2023/12/16 05:37:45;;;;;;;17.15;5.43;;;5.90;99.90;;;;;;4976615;28;20493;-72
2023/12/16 05:40:11;;;;;;;19.52;5.13;;;5.90;99.90;;;;;;4990137;28;20072;-72
2023/12/16 05:42:37;;;;;;;16.27;4.93;;;5.90;99.90;;;;;;5005398;28;20085;-72
2023/12/16 05:45:03;;;;;;;21.08;6.10;;;5.90;99.90;;;;;;4985503;28;20570;-73
2023/12/16 05:47:29;;;;;;;19.63;6.18;;;5.90;99.90;;;;;;5025407;28;20057;-71
2023/12/16 05:49:58;;;;;;;19.55;6.00;;;5.90;99.90;;;;;;5043842;28;20046;-72
2023/12/16 05:52:24;;;;;;;17.75;5.78;;;5.90;99.90;;;;;;5024195;28;20124;-71
2023/12/16 05:54:49;;;;;;;19.08;6.32;;;6.00;99.90;;;;;;5033850;28;20492;-71
2023/12/16 05:57:15;;;;;;;15.60;5.70;;;5.90;99.90;;;;;;5019591;28;20079;-72
2023/12/16 05:59:41;;;;;;;20.73;6.40;;;5.90;99.90;;;;;;4985211;28;20381;-72
2023/12/16 06:02:09;;;;;;;18.95;6.18;;;5.90;99.90;;;;;;5002047;28;20052;-71
2023/12/16 06:04:35;;;;;;;22.13;7.30;;;5.80;99.90;;;;;;5040164;28;20160;-71
2023/12/16 06:07:01;;;;;;;20.70;7.05;;;5.80;99.90;;;;;;5020687;28;20741;-71
2023/12/16 06:09:27;;;;;;;21.85;7.53;;;5.90;99.90;;;;;;5013075;28;20069;-72
2023/12/16 06:11:55;;;;;;;19.60;6.85;;;5.90;99.90;;;;;;5009324;28;20030;-72
2023/12/16 06:14:23;;;;;;;21.63;7.22;;;5.90;99.90;;;;;;4990821;28;20056;-71
2023/12/16 06:16:50;;;;;;;20.52;7.43;;;5.90;99.90;;;;;;5007500;28;20040;-71
2023/12/16 06:19:15;;;;;;;22.35;7.55;;;5.90;99.90;;;;;;5036775;28;20075;-72
2023/12/16 06:21:41;;;;;;;21.50;7.80;;;6.00;99.90;;;;;;5050984;28;20049;-72
2023/12/16 06:24:10;;;;;;;23.50;9.07;;;6.00;99.90;;;;;;5047424;28;20090;-71
2023/12/16 06:26:36;;;;;;;24.50;8.13;;;6.00;99.90;;;;;;5020777;28;20354;-71
2023/12/16 06:29:02;;;;;;;20.88;8.10;;;6.00;99.90;;;;;;5012019;28;20034;-71
2023/12/16 06:31:28;;;;;;;23.30;8.05;;;6.00;99.90;;;;;;4994515;28;20184;-71
2023/12/16 06:33:53;;;;;;;19.52;7.50;;;6.10;99.90;;;;;;4995667;28;20530;-72
2023/12/16 06:36:19;;;;;;;33.08;9.18;;;6.10;99.90;;;;;;5010313;28;20057;-72
2023/12/16 06:38:45;;;;;;;22.67;8.27;;;6.10;99.90;;;;;;5029511;28;20036;-72
2023/12/16 06:41:11;;;;;;;21.83;8.73;;;6.20;99.90;;;;;;5046795;28;20046;-72
2023/12/16 06:43:37;;;;;;;21.83;8.85;;;6.20;99.90;;;;;;5042312;28;20969;-78
2023/12/16 06:46:02;;;;;;;26.08;8.63;;;6.20;99.90;;;;;;5016727;28;20048;-78
2023/12/16 06:48:28;;;;;;;26.65;9.32;;;6.30;99.90;;;;;;5006288;28;20062;-78
2023/12/16 06:50:57;;;;;;;27.90;9.52;;;6.30;99.90;;;;;;5008616;28;20052;-78
2023/12/16 06:53:23;;;;;;;23.35;8.45;;;6.30;99.90;;;;;;5048621;28;20089;-78
2023/12/16 06:55:49;;;;;;;27.45;8.98;;;6.40;99.90;;;;;;5021444;28;20643;-78
2023/12/16 06:58:15;;;;;;;24.17;7.68;;;6.40;99.90;;;;;;5024083;28;20053;-78
2023/12/16 07:00:40;;;;;;;27.73;9.70;;;6.50;99.90;;;;;;5024532;28;20075;-78
2023/12/16 07:03:07;;;;;;;28.77;8.63;;;6.40;99.90;;;;;;4990281;28;20118;-78
2023/12/16 07:05:34;;;;;;;20.00;8.73;;;6.40;99.90;;;;;;4980874;28;20131;-78
2023/12/16 07:08:00;;;;;;;27.27;9.30;;;6.50;99.90;;;;;;4981633;28;20043;-78
2023/12/16 07:10:26;;;;;;;23.73;10.20;;;6.50;99.90;;;;;;4997519;28;20278;-78
2023/12/16 07:12:52;;;;;;;20.48;8.57;;;6.60;99.90;;;;;;5015602;28;20050;-78
2023/12/16 07:15:19;;;;;;;25.58;9.18;;;6.60;99.90;;;;;;5014032;28;20557;-78
2023/12/16 07:17:45;;;;;;;21.90;9.45;;;6.60;99.90;;;;;;5002749;28;20042;-72
2023/12/16 07:20:12;;;;;;;30.10;9.25;;;6.50;99.90;;;;;;5033742;28;20078;-72
2023/12/16 07:22:38;;;;;;;24.95;9.60;;;6.60;99.90;;;;;;5063949;27;20051;-72
2023/12/16 07:25:04;;;;;;;20.85;8.50;;;6.60;99.90;;;;;;5034069;28;20089;-72
2023/12/16 07:27:30;;;;;;;29.48;9.55;;;6.60;99.90;;;;;;5021021;28;20047;-72
2023/12/16 07:29:56;;;;;;;32.70;9.45;;;6.60;99.90;;;;;;5025216;28;20032;-72
2023/12/16 07:32:23;;;;;;;20.60;9.52;;;6.60;99.90;;;;;;5025493;28;20048;-71
2023/12/16 07:34:50;;;;;;;26.05;9.32;;;6.60;99.90;;;;;;5022284;28;20046;-72
2023/12/16 07:37:16;;;;;;;28.33;8.73;;;6.60;99.90;;;;;;5034236;28;20152;-72
2023/12/16 07:39:42;;;;;;;23.02;9.95;;;6.60;99.90;;;;;;5041820;28;20053;-71
2023/12/16 07:42:07;;;;;;;23.63;10.20;;;6.60;99.90;;;;;;5026252;28;20791;-72
2023/12/16 07:44:33;;;;;;;25.55;9.32;;;6.50;99.90;;;;;;5020248;28;20491;-72
2023/12/16 07:46:59;;;;;;;24.75;9.45;;;6.60;99.90;;;;;;5018020;28;20059;-72
2023/12/16 07:49:25;;;;;;;25.45;9.20;;;6.60;99.90;;;;;;5048639;27;20520;-72
2023/12/16 07:51:52;;;;;;;27.75;10.43;;;6.60;99.90;;;;;;5009912;28;20133;-72
2023/12/16 07:54:18;;;;;;;24.25;10.02;;;6.60;99.90;;;;;;4997730;28;20093;-72
2023/12/16 07:56:43;;;;;;;31.83;10.05;;;6.60;99.90;;;;;;5018570;28;20046;-71
2023/12/16 07:59:09;;;;;;;30.65;10.52;;;6.70;99.90;;;;;;5021560;28;20081;-72
2023/12/16 08:01:35;;;;;;;28.50;11.00;;;6.70;99.90;;;;;;5009952;28;20497;-72
2023/12/16 08:04:01;;;;;;;31.55;10.27;;;6.70;99.90;;;;;;5057361;27;20043;-72
2023/12/16 08:06:27;;;;;;;25.20;10.25;;;6.70;99.90;;;;;;5031967;28;20163;-72
2023/12/16 08:08:52;;;;;;;26.83;10.30;;;6.70;99.90;;;;;;5017833;28;20507;-72
2023/12/16 08:11:18;;;;;;;27.95;10.73;;;6.70;99.90;;;;;;5010170;28;20038;-72
2023/12/16 08:13:44;;;;;;;26.85;10.40;;;6.70;99.90;;;;;;5023052;28;20043;-72
2023/12/16 08:16:11;;;;;;;25.35;9.85;;;6.70;99.90;;;;;;5043299;27;20038;-73
2023/12/16 08:18:37;;;;;;;27.08;10.43;;;6.80;99.90;;;;;;5026502;28;20095;-72
2023/12/16 08:21:03;;;;;;;28.35;10.13;;;6.80;99.90;;;;;;4999470;28;20153;-72
2023/12/16 08:23:29;;;;;;;25.15;10.40;;;6.80;99.90;;;;;;5027979;28;20043;-72
2023/12/16 08:25:55;;;;;;;28.02;11.40;;;6.80;99.90;;;;;;4997689;28;20042;-72
2023/12/16 08:28:23;;;;;;;25.17;10.60;;;6.80;99.90;;;;;;4997118;28;20505;-72
2023/12/16 08:30:50;;;;;;;26.02;10.85;;;6.80;99.90;;;;;;4981742;28;20042;-72
2023/12/16 08:33:16;;;;;;;28.38;11.07;;;6.80;99.90;;;;;;5021683;28;20071;-73
2023/12/16 08:35:43;;;;;;;21.60;10.68;;;6.80;99.90;;;;;;5027390;28;20109;-71
2023/12/16 08:38:09;;;;;;;25.23;10.45;;;6.80;99.90;;;;;;5027122;28;20040;-78
2023/12/16 08:40:35;;;;;;;26.67;10.68;;;6.90;99.90;;;;;;5058494;27;20385;-79
2023/12/16 08:43:01;;;;;;;26.40;11.15;;;6.80;99.90;;;;;;5003794;28;20054;-79
2023/12/16 08:45:26;;;;;;;30.92;10.52;;;6.90;99.90;;;;;;4993530;28;20042;-79
2023/12/16 08:47:52;;;;;;;26.85;9.40;;;6.90;99.90;;;;;;4960213;28;20045;-78
2023/12/16 08:50:18;;;;;;;24.90;10.40;;;6.90;99.90;;;;;;5021650;28;20035;-78
2023/12/16 08:52:44;;;;;;;28.48;10.45;;;6.90;99.90;;;;;;5030390;28;20096;-78
2023/12/16 08:55:10;;;;;;;29.10;11.02;;;6.90;99.90;;;;;;5005533;28;20123;-78
2023/12/16 08:57:36;;;;;;;27.35;10.80;;;7.00;99.90;;;;;;5057621;28;20065;-78
2023/12/16 09:00:02;;;;;;;30.63;11.07;;;7.00;99.90;;;;;;5043165;28;20056;-78
2023/12/16 09:02:27;;;;;;;28.75;10.57;;;7.00;99.90;;;;;;5065688;27;20296;-78
2023/12/16 09:04:53;;;;;;;29.25;11.60;;;7.10;99.90;;;;;;5012368;28;20039;-77
2023/12/16 09:07:19;;;;;;;37.38;11.80;;;7.10;99.90;;;;;;4999164;28;20050;-78
2023/12/16 09:09:44;;;;;;;31.73;12.00;;;7.20;99.90;;;;;;5013906;28;20034;-78
2023/12/16 09:12:11;;;;;;;28.55;11.27;;;7.20;99.90;;;;;;5052168;27;20047;-78
2023/12/16 09:14:41;;;;;;;33.60;11.00;;;7.20;99.90;;;;;;5021308;28;20044;-78
2023/12/16 09:17:08;;;;;;;31.55;11.38;;;7.10;99.90;;;;;;5028016;28;20103;-77
2023/12/16 09:19:34;;;;;;;28.98;11.57;;;7.20;99.90;;;;;;5045017;27;20496;-78
2023/12/16 09:22:00;;;;;;;33.70;11.63;;;7.30;99.90;;;;;;5014275;28;20050;-79
2023/12/16 09:24:26;;;;;;;31.33;11.45;;;7.20;99.90;;;;;;4992822;28;20051;-79
2023/12/16 09:26:51;;;;;;;30.58;11.57;;;7.20;99.90;;;;;;5013207;28;20052;-78
2023/12/16 09:29:18;;;;;;;28.45;11.45;;;7.20;99.90;;;;;;5005423;28;20044;-78
2023/12/16 09:31:44;;;;;;;32.85;11.52;;;7.20;99.90;;;;;;4987947;28;20076;-78
2023/12/16 09:34:10;;;;;;;34.53;12.25;;;7.20;99.90;;;;;;5024803;28;20032;-78
2023/12/16 09:36:35;;;;;;;32.13;12.10;;;7.20;99.90;;;;;;4985562;28;20065;-78
2023/12/16 09:39:02;;;;;;;37.40;11.93;;;7.20;99.90;;;;;;5036141;28;20511;-78
2023/12/16 09:41:29;;;;;;;30.52;11.57;;;7.30;99.90;;;;;;5013056;28;21378;-78
2023/12/16 09:43:58;;;;;;;37.67;12.55;;;7.30;99.90;;;;;;5026462;28;20118;-79
2023/12/16 09:46:28;;;;;;;37.47;12.68;;;7.30;99.90;;;;;;5023583;28;20088;-78
2023/12/16 09:48:54;;;;;;;34.97;11.70;;;7.30;99.90;;;;;;5032532;28;20514;-78
2023/12/16 09:51:21;;;;;;;33.72;12.10;;;7.30;99.90;;;;;;5032887;28;20038;-78
2023/12/16 09:53:51;;;;;;;33.28;11.70;;;7.30;99.90;;;;;;5020762;28;20583;-79
2023/12/16 09:56:18;;;;;;;36.33;11.80;;;7.40;99.90;;;;;;5055384;28;20040;-79
2023/12/16 09:58:45;;;;;;;40.50;13.98;;;7.30;99.90;;;;;;5013606;28;20036;-79
2023/12/16 10:01:11;;;;;;;41.38;13.93;;;7.40;99.90;;;;;;5005230;28;20073;-79
2023/12/16 10:03:38;;;;;;;33.50;13.13;;;7.40;99.90;;;;;;4985148;28;20136;-72
2023/12/16 10:06:09;;;;;;;37.60;14.13;;;7.40;99.90;;;;;;5019182;28;20047;-71
2023/12/16 10:08:36;;;;;;;41.55;15.07;;;7.40;99.90;;;;;;5047444;28;20070;-72
2023/12/16 10:11:03;;;;;;;32.10;13.93;;;7.40;99.90;;;;;;5068270;27;20048;-72
2023/12/16 10:13:31;;;;;;;47.22;15.57;;;7.40;99.90;;;;;;5050781;28;20092;-71
2023/12/16 10:15:58;;;;;;;38.03;16.45;;;7.40;99.90;;;;;;5061222;28;20044;-72
2023/12/16 10:18:26;;;;;;;41.25;17.45;;;7.50;99.90;;;;;;5004944;28;20122;-71
2023/12/16 10:20:55;;;;;;;48.58;17.42;;;7.50;99.90;;;;;;5009720;28;20054;-71
2023/12/16 10:23:22;;;;;;;49.30;19.27;;;7.40;99.90;;;;;;4993220;28;21198;-71
2023/12/16 10:25:48;;;;;;;47.20;19.23;;;7.50;99.90;;;;;;5006476;28;20102;-71
2023/12/16 10:28:14;;;;;;;48.97;20.23;;;7.50;99.90;;;;;;5037308;28;20054;-72
2023/12/16 10:30:40;;;;;;;46.25;20.25;;;7.50;99.90;;;;;;5019455;28;20049;-72
2023/12/16 10:33:08;;;;;;;51.08;21.35;;;7.50;99.90;;;;;;5008698;28;20047;-72
2023/12/16 10:35:36;;;;;;;58.17;23.85;;;7.50;99.90;;;;;;5043247;27;20498;-71
2023/12/16 10:38:02;;;;;;;53.55;20.67;;;7.50;99.90;;;;;;4994546;28;20677;-72
2023/12/16 10:40:28;;;;;;;62.10;24.60;;;7.50;99.90;;;;;;5028418;28;20039;-72
2023/12/16 10:42:54;;;;;;;54.75;24.13;;;7.50;99.90;;;;;;4997228;28;20186;-72
2023/12/16 10:45:20;;;;;;;58.28;25.67;;;7.50;99.90;;;;;;5004388;28;20074;-72
2023/12/16 10:47:50;;;;;;;51.85;25.58;;;7.60;99.90;;;;;;5016444;28;20074;-71
2023/12/16 10:50:16;;;;;;;57.07;27.10;;;7.50;99.90;;;;;;4996380;28;20146;-72
2023/12/16 10:52:56;;;;;;;57.70;26.33;;;7.50;99.90;;;;;;5009105;28;20121;-72
2023/12/16 10:55:44;;;;;;;55.90;28.38;;;7.50;99.90;;;;;;4995988;28;20050;-71
2023/12/16 10:58:30;;;;;;;55.15;27.75;;;7.50;99.90;;;;;;5017025;28;20550;-71
2023/12/16 11:01:04;;;;;;;59.65;30.50;;;7.60;99.90;;;;;;4964025;28;20070;-71
2023/12/16 11:03:56;;;;;;;55.60;27.35;;;7.60;99.90;;;;;;4980928;28;20058;-72
2023/12/16 11:06:46;;;;;;;56.45;27.60;;;7.60;99.90;;;;;;4982178;28;20054;-72
2023/12/16 11:09:13;;;;;;;56.67;28.77;;;7.50;99.90;;;;;;4977781;28;20533;-71
2023/12/16 11:11:41;;;;;;;57.70;28.85;;;7.50;99.90;;;;;;4962647;28;20092;-71
2023/12/16 11:14:08;;;;;;;49.28;28.48;;;7.60;99.90;;;;;;4995020;28;20491;-72
2023/12/16 11:16:59;;;;;;;48.25;28.83;;;7.60;99.90;;;;;;4962820;28;20050;-71
2023/12/16 11:19:47;;;;;;;56.47;30.45;;;7.60;99.90;;;;;;4985311;28;20076;-71
2023/12/16 11:22:20;;;;;;;52.83;28.80;;;7.60;99.90;;;;;;4965769;28;20482;-72
2023/12/16 11:24:46;;;;;;;57.55;32.38;;;7.60;99.90;;;;;;4963368;28;20081;-72
2023/12/16 11:27:14;;;;;;;59.75;32.85;;;7.60;99.90;;;;;;4980266;28;20080;-71
2023/12/16 11:29:42;;;;;;;66.70;33.83;;;7.60;99.90;;;;;;4979804;28;20143;-71
2023/12/16 11:32:09;;;;;;;55.15;33.17;;;7.60;99.90;;;;;;4980907;28;20042;-72
2023/12/16 11:34:43;;;;;;;50.67;30.40;;;7.60;99.90;;;;;;4979459;28;20136;-76
2023/12/16 11:37:10;;;;;;;67.07;33.15;;;7.60;99.90;;;;;;4964809;28;20070;-71
2023/12/16 11:39:44;;;;;;;70.75;35.15;;;7.70;99.90;;;;;;4979880;28;21161;-72
2023/12/16 11:42:12;;;;;;;67.35;33.75;;;7.60;99.90;;;;;;4994683;28;20039;-72
2023/12/16 11:44:53;;;;;;;70.00;35.80;;;7.60;99.90;;;;;;4978021;28;20050;-71
2023/12/16 11:47:28;;;;;;;82.38;37.15;;;7.60;99.90;;;;;;5013284;28;20383;-71
2023/12/16 11:49:55;;;;;;;77.85;36.78;;;7.60;99.90;;;;;;4976407;28;20612;-71
2023/12/16 11:52:24;;;;;;;81.75;38.05;;;7.60;99.90;;;;;;4981389;28;20049;-71
2023/12/16 11:54:54;;;;;;;80.43;37.72;;;7.60;99.90;;;;;;4977781;28;20047;-72
2023/12/16 11:57:26;;;;;;;81.07;37.97;;;7.70;99.90;;;;;;4980499;28;20111;-72
2023/12/16 11:59:54;;;;;;;66.75;34.33;;;7.70;99.90;;;;;;5010382;28;20050;-72
2023/12/16 12:02:20;;;;;;;73.15;36.10;;;7.70;99.90;;;;;;4982314;28;20041;-72
2023/12/16 12:04:47;;;;;;;70.45;36.33;;;7.70;99.90;;;;;;4966555;28;20046;-72
2023/12/16 12:07:14;;;;;;;73.43;36.78;;;7.70;99.90;;;;;;4980528;28;20100;-72
2023/12/16 12:09:44;;;;;;;69.97;36.40;;;7.70;99.90;;;;;;4961185;28;20390;-72
2023/12/16 12:12:14;;;;;;;91.85;38.97;;;7.70;99.90;;;;;;4962489;28;20074;-72
2023/12/16 12:14:46;;;;;;;75.05;38.13;;;7.70;99.90;;;;;;4964168;28;20049;-72
2023/12/16 12:17:13;;;;;;;88.95;39.30;;;7.70;99.90;;;;;;4994222;28;20050;-77
2023/12/16 12:19:42;;;;;;;86.43;39.55;;;7.70;99.90;;;;;;4982296;28;20046;-77
2023/12/16 12:22:08;;;;;;;86.60;38.75;;;7.80;99.90;;;;;;4993477;28;20053;-77
2023/12/16 12:24:33;;;;;;;96.57;41.55;;;7.80;99.90;;;;;;4977641;28;20050;-77
2023/12/16 12:26:59;;;;;;;89.97;39.13;;;7.80;99.90;;;;;;4964939;28;20047;-77
2023/12/16 12:29:55;;;;;;;85.43;39.88;;;7.80;99.90;;;;;;4980516;28;20405;-72
2023/12/16 12:32:24;;;;;;;73.50;38.30;;;7.80;99.90;;;;;;4963064;28;20050;-72
2023/12/16 12:35:04;;;;;;;90.00;38.90;;;7.80;99.90;;;;;;4964455;28;20042;-72
2023/12/16 12:37:46;;;;;;;75.32;35.28;;;7.80;99.90;;;;;;4960657;28;20495;-72
2023/12/16 12:40:12;;;;;;;59.85;29.80;;;7.90;99.90;;;;;;4965317;28;20514;-72
2023/12/16 12:42:48;;;;;;;77.90;33.70;;;7.90;99.90;;;;;;4978994;28;20058;-72